Bluebell, Utah
Current Conditions -  °F | °C
As of 10:53 PM on Saturday 20 Dec 2014 (Local Time) from KVEL Reporting Station
Overcast Overcast  
Wind Chill: -1°   Ceiling: 3400
Heat Index: -1°   Visibility: 7mi
Dew Point: -3°   Wind: 0mph
Humidity: 85%   Direction: NA
Pressure: 30.07"   Gusts: NA
Location:  40.36°N, 110.22°W
Report Text: KVEL 210553Z AUTO 00000KT 7SM OVC034 M01/M03 A3007 RMK AO2 SLP205 T10111033 11006 21022 58003
Loading
Personal Weather Stations






























Interactive Weather Map New forecast layout! Learn more

10-Day Weather Forecast

Advertisements
Track Severe Weather on mobile